createdAt,value
2022-10-25T00:01:45.387Z,97692.00
2022-10-25T00:04:47.706Z,97691.78
2022-10-25T00:07:49.823Z,97704.09
2022-10-25T00:10:51.858Z,97703.56
2022-10-25T00:13:55.619Z,97700.69
2022-10-25T00:16:57.693Z,97702.50
2022-10-25T00:19:59.738Z,97702.50
2022-10-25T00:23:01.846Z,97711.28
2022-10-25T00:26:06.303Z,97704.13
2022-10-25T00:29:09.586Z,97711.56
2022-10-25T00:32:11.694Z,97711.28
2022-10-25T00:35:14.006Z,97711.78
2022-10-25T00:38:16.042Z,97717.09
2022-10-25T00:41:22.976Z,97715.25
2022-10-25T00:44:39.775Z,97719.19
2022-10-25T00:48:09.570Z,97721.81
2022-10-25T00:51:11.646Z,97726.63
2022-10-25T00:54:16.846Z,97729.28
2022-10-25T00:57:51.123Z,97726.94
2022-10-25T01:00:53.263Z,97726.66
2022-10-25T01:03:56.817Z,97732.78
2022-10-25T01:06:58.916Z,97733.81
2022-10-25T01:10:00.975Z,97738.56
2022-10-25T01:13:03.119Z,97730.31
2022-10-25T01:16:31.784Z,97737.22
2022-10-25T01:19:55.271Z,97746.50
2022-10-25T01:23:15.466Z,97739.00
2022-10-25T01:26:50.423Z,97733.41
2022-10-25T01:30:08.410Z,97742.88
2022-10-25T01:33:34.991Z,97750.22
2022-10-25T01:36:50.875Z,97751.13
2022-10-25T01:40:23.724Z,97747.19
2022-10-25T01:43:30.858Z,97749.84
2022-10-25T01:46:54.694Z,97748.53
2022-10-25T01:50:13.112Z,97751.25
2022-10-25T01:53:15.324Z,97760.59
2022-10-25T01:56:30.178Z,97762.44
2022-10-25T01:59:52.264Z,97766.72
2022-10-25T02:03:14.875Z,97766.81
2022-10-25T02:06:41.452Z,97763.63
2022-10-25T02:10:23.498Z,97770.34
2022-10-25T02:13:43.679Z,97777.13
2022-10-25T02:16:50.837Z,97771.13
2022-10-25T02:19:59.117Z,97782.66
2022-10-25T02:23:04.170Z,97785.59
2022-10-25T02:26:07.838Z,97790.44
2022-10-25T02:29:11.234Z,97788.06
2022-10-25T02:32:13.365Z,97779.88
2022-10-25T02:35:15.982Z,97790.22
2022-10-25T02:38:18.025Z,97795.56
2022-10-25T02:41:20.754Z,97789.75
2022-10-25T02:44:22.828Z,97791.38
2022-10-25T02:47:24.859Z,97792.44
2022-10-25T02:50:26.908Z,97797.13
2022-10-25T02:53:29.078Z,97796.69
2022-10-25T02:56:31.138Z,97794.84
2022-10-25T02:59:33.215Z,97795.06
2022-10-25T03:02:35.249Z,97779.91
2022-10-25T03:05:37.320Z,97793.41
2022-10-25T03:08:39.793Z,97792.03
2022-10-25T03:11:41.822Z,97792.56
2022-10-25T03:14:43.906Z,97796.56
2022-10-25T03:17:46.287Z,97806.06
2022-10-25T03:20:48.706Z,97799.63
2022-10-25T03:23:50.890Z,97805.13
2022-10-25T03:26:53.005Z,97805.94
2022-10-25T03:29:55.055Z,97805.97
2022-10-25T03:32:57.944Z,97806.97
2022-10-25T03:36:00.022Z,97812.00
2022-10-25T03:39:02.075Z,97816.53
2022-10-25T03:42:04.251Z,97821.09
2022-10-25T03:45:06.718Z,97825.41
2022-10-25T03:48:09.069Z,97819.09
2022-10-25T03:51:11.113Z,97814.91
2022-10-25T03:54:13.137Z,97830.88
2022-10-25T03:57:15.310Z,97827.66
2022-10-25T04:00:17.537Z,97830.53
2022-10-25T04:03:19.571Z,97845.38
2022-10-25T04:06:21.616Z,97841.19
2022-10-25T04:09:23.668Z,97844.19
2022-10-25T04:12:25.697Z,97845.53
2022-10-25T04:15:27.750Z,97852.97
2022-10-25T04:18:29.770Z,97854.94
2022-10-25T04:21:31.806Z,97849.59
2022-10-25T04:24:33.839Z,97855.72
2022-10-25T04:27:35.886Z,97861.03
2022-10-25T04:30:38.783Z,97851.78
2022-10-25T04:33:42.998Z,97848.38
2022-10-25T04:36:46.039Z,97865.63
2022-10-25T04:39:48.141Z,97858.94
2022-10-25T04:42:50.228Z,97860.59
2022-10-25T04:45:52.472Z,97862.41
2022-10-25T04:48:54.518Z,97866.53
2022-10-25T04:51:56.548Z,97862.00
2022-10-25T04:54:58.712Z,97867.59
2022-10-25T04:58:00.840Z,97873.34
2022-10-25T05:01:09.305Z,97875.97
2022-10-25T05:04:11.391Z,97883.66
2022-10-25T05:07:13.436Z,97879.88
2022-10-25T05:10:15.773Z,97885.97
2022-10-25T05:13:17.845Z,97887.66
2022-10-25T05:16:23.750Z,97888.19
2022-10-25T05:19:25.789Z,97886.53
2022-10-25T05:22:27.867Z,97892.19
2022-10-25T05:25:29.920Z,97888.66
2022-10-25T05:28:32.934Z,97877.72
2022-10-25T05:31:35.089Z,97882.88
2022-10-25T05:34:37.156Z,97889.31
2022-10-25T05:37:39.183Z,97892.78
2022-10-25T05:40:41.882Z,97893.06
2022-10-25T05:43:44.215Z,97889.25
2022-10-25T05:46:46.281Z,97901.31
2022-10-25T05:49:48.296Z,97906.28
2022-10-25T05:52:50.342Z,97910.78
2022-10-25T05:55:52.387Z,97912.13
2022-10-25T05:58:56.278Z,97909.72
2022-10-25T06:01:58.449Z,97918.34
2022-10-25T06:05:00.587Z,97922.66
2022-10-25T06:08:02.654Z,97919.22
2022-10-25T06:11:07.864Z,97926.03
2022-10-25T06:14:10.782Z,97931.59
2022-10-25T06:17:13.872Z,97937.41
2022-10-25T06:20:15.976Z,97943.13
2022-10-25T06:23:18.024Z,97953.09
2022-10-25T06:26:25.601Z,97958.94
2022-10-25T06:29:27.659Z,97963.22
2022-10-25T06:32:29.694Z,97971.47
2022-10-25T06:35:33.258Z,97981.25
2022-10-25T06:38:35.300Z,97986.88
2022-10-25T06:41:37.894Z,97985.06
2022-10-25T06:44:40.118Z,97986.38
2022-10-25T06:47:46.482Z,97988.03
2022-10-25T06:50:51.431Z,97992.03
2022-10-25T06:53:58.335Z,97986.94
2022-10-25T06:57:00.403Z,97988.88
2022-10-25T07:00:02.520Z,97996.50
2022-10-25T07:03:04.551Z,97987.94
2022-10-25T07:06:11.433Z,97994.53
2022-10-25T07:09:15.684Z,97993.94
2022-10-25T07:12:17.750Z,98003.88
2022-10-25T07:18:26.709Z,98002.16
2022-10-25T07:21:29.285Z,98001.75
2022-10-25T07:24:31.426Z,98004.00
2022-10-25T07:27:33.549Z,98010.19
2022-10-25T07:30:35.575Z,98015.44
2022-10-25T07:33:37.679Z,98012.44
2022-10-25T07:36:39.741Z,98019.34
2022-10-25T07:39:42.074Z,98029.66
2022-10-25T07:42:44.086Z,98029.16
2022-10-25T07:45:46.351Z,98035.16
2022-10-25T07:48:48.383Z,98040.91
2022-10-25T07:51:50.398Z,98038.47
2022-10-25T07:54:52.422Z,98043.88
2022-10-25T07:58:03.409Z,98053.25
2022-10-25T08:01:08.054Z,98048.69
2022-10-25T08:04:10.117Z,98055.56
2022-10-25T08:07:12.339Z,98057.44
2022-10-25T08:10:14.425Z,98072.66
2022-10-25T08:13:16.506Z,98075.22
2022-10-25T08:16:18.747Z,98078.97
2022-10-25T08:19:20.804Z,98086.19
2022-10-25T08:22:22.991Z,98086.16
2022-10-25T08:25:27.034Z,98088.59
2022-10-25T08:28:31.429Z,98083.06
2022-10-25T08:31:33.748Z,98087.00
2022-10-25T08:34:35.868Z,98087.34
2022-10-25T08:37:37.933Z,98086.50
2022-10-25T08:41:03.517Z,98086.25
2022-10-25T08:44:42.038Z,98084.91
2022-10-25T08:47:44.731Z,98090.69
2022-10-25T08:50:49.118Z,98085.44
2022-10-25T08:53:51.471Z,98092.66
2022-10-25T08:57:21.441Z,98093.44
2022-10-25T09:00:24.315Z,98092.38
2022-10-25T09:03:26.676Z,98085.94
2022-10-25T09:06:40.129Z,98092.59
2022-10-25T09:09:54.366Z,98095.25
2022-10-25T09:13:12.679Z,98099.81
2022-10-25T09:16:19.846Z,98110.19
2022-10-25T09:19:34.679Z,98116.75
2022-10-25T09:23:03.051Z,98115.78
2022-10-25T09:26:10.617Z,98108.63
2022-10-25T09:29:18.081Z,98116.50
2022-10-25T09:32:42.337Z,98123.75
2022-10-25T09:35:53.625Z,98117.56
2022-10-25T09:39:01.085Z,98135.75
2022-10-25T09:42:03.423Z,98138.16
2022-10-25T09:45:09.111Z,98144.25
2022-10-25T09:48:46.689Z,98150.38
2022-10-25T09:52:04.071Z,98147.16
2022-10-25T09:55:36.819Z,98151.44
2022-10-25T09:58:45.055Z,98155.38
2022-10-25T10:01:47.288Z,98155.59
2022-10-25T10:04:49.425Z,98158.81
2022-10-25T10:07:51.941Z,98154.91
2022-10-25T10:10:54.069Z,98153.59
2022-10-25T10:14:13.654Z,98153.53
2022-10-25T10:17:15.940Z,98157.25
2022-10-25T10:20:18.598Z,98159.59
2022-10-25T10:23:20.674Z,98161.00
2022-10-25T10:26:49.606Z,98174.88
2022-10-25T10:29:58.943Z,98180.94
2022-10-25T10:33:01.575Z,98178.53
2022-10-25T10:36:24.963Z,98185.47
2022-10-25T10:39:27.125Z,98190.03
2022-10-25T10:42:37.939Z,98190.16
2022-10-25T10:45:49.081Z,98186.16
2022-10-25T10:48:56.029Z,98193.66
2022-10-25T10:51:58.139Z,98199.63
2022-10-25T10:55:01.123Z,98201.13
2022-10-25T10:58:31.791Z,98207.31
2022-10-25T11:01:34.045Z,98198.56
2022-10-25T11:04:51.010Z,98203.59
2022-10-25T11:08:01.648Z,98200.13
2022-10-25T11:11:22.757Z,98204.94
2022-10-25T11:14:24.833Z,98199.06
2022-10-25T11:17:29.430Z,98204.91
2022-10-25T11:21:08.910Z,98202.78
2022-10-25T11:24:54.510Z,98210.28
2022-10-25T11:28:17.862Z,98217.72
2022-10-25T11:32:02.625Z,98213.13
2022-10-25T11:35:35.115Z,98211.50
2022-10-25T11:39:05.598Z,98211.16
2022-10-25T11:42:28.697Z,98209.56
2022-10-25T11:45:49.811Z,98215.06
2022-10-25T11:49:10.301Z,98221.31
2022-10-25T11:52:39.355Z,98215.84
2022-10-25T11:56:24.387Z,98213.91
2022-10-25T11:59:54.964Z,98229.81
2022-10-25T12:03:15.267Z,98230.06
2022-10-25T12:06:26.114Z,98216.41
2022-10-25T12:09:39.285Z,98222.06
2022-10-25T12:13:02.940Z,98218.34
2022-10-25T12:16:06.418Z,98216.88
2022-10-25T12:19:27.349Z,98212.63
2022-10-25T12:22:42.186Z,98211.88
2022-10-25T12:25:50.637Z,98207.44
2022-10-25T12:28:52.665Z,98213.09
2022-10-25T12:31:58.029Z,98218.06
2022-10-25T12:35:00.802Z,98211.22
2022-10-25T12:38:09.898Z,98221.44
2022-10-25T12:41:24.954Z,98215.09
2022-10-25T12:44:52.854Z,98216.72
2022-10-25T12:48:00.831Z,98203.41
2022-10-25T12:51:18.048Z,98204.88
2022-10-25T12:54:49.928Z,98197.81
2022-10-25T12:57:55.206Z,98191.38
2022-10-25T13:01:21.824Z,98199.19
2022-10-25T13:05:11.585Z,98192.59
2022-10-25T13:08:16.602Z,98193.56
2022-10-25T13:11:18.650Z,98193.00
2022-10-25T13:14:47.838Z,98201.03
2022-10-25T13:18:02.899Z,98193.03
2022-10-25T13:21:13.655Z,98194.28
2022-10-25T13:24:43.298Z,98191.09
2022-10-25T13:28:11.141Z,98199.94
2022-10-25T13:31:35.095Z,98197.44
2022-10-25T13:34:37.238Z,98205.06
2022-10-25T13:37:41.058Z,98200.59
2022-10-25T13:40:43.200Z,98202.16
2022-10-25T13:44:03.923Z,98199.06
2022-10-25T13:47:06.090Z,98198.50
2022-10-25T13:50:31.153Z,98193.34
2022-10-25T13:53:38.605Z,98182.66
2022-10-25T13:56:53.618Z,98198.50
2022-10-25T13:59:58.933Z,98196.81
2022-10-25T14:03:10.048Z,98193.59
2022-10-25T14:06:31.442Z,98191.97
2022-10-25T14:09:36.482Z,98190.38
2022-10-25T14:12:38.566Z,98187.88
2022-10-25T14:15:46.615Z,98196.34
2022-10-25T14:18:48.822Z,98196.38
2022-10-25T14:21:52.503Z,98194.63
2022-10-25T14:24:54.818Z,98186.47
2022-10-25T14:28:14.755Z,98190.09
2022-10-25T14:31:23.048Z,98192.50
2022-10-25T14:34:28.082Z,98194.91
2022-10-25T14:37:30.118Z,98203.47
2022-10-25T14:40:32.359Z,98189.09
2022-10-25T14:43:38.505Z,98188.25
2022-10-25T14:46:44.456Z,98183.16
2022-10-25T14:49:46.486Z,98183.75
2022-10-25T14:52:49.825Z,98177.31
2022-10-25T14:56:00.905Z,98174.88
2022-10-25T14:59:03.495Z,98181.41
2022-10-25T15:02:49.023Z,98189.56
2022-10-25T15:05:52.375Z,98187.91
2022-10-25T15:09:29.060Z,98187.41
2022-10-25T15:12:24.828Z,98182.97
2022-10-25T15:15:33.763Z,98185.19
2022-10-25T15:18:37.196Z,98187.22
2022-10-25T15:21:50.400Z,98189.06
2022-10-25T15:24:52.746Z,98183.59
2022-10-25T15:27:55.424Z,98182.00
2022-10-25T15:31:02.536Z,98183.44
2022-10-25T15:34:05.453Z,98185.22
2022-10-25T15:37:11.289Z,98185.56
2022-10-25T15:40:16.024Z,98187.28
2022-10-25T15:43:18.048Z,98185.47
2022-10-25T15:46:33.301Z,98173.72
2022-10-25T15:49:35.461Z,98178.94
2022-10-25T15:52:37.473Z,98176.13
2022-10-25T15:55:39.531Z,98168.41
2022-10-25T15:58:41.579Z,98176.38
2022-10-25T16:01:49.771Z,98168.97
2022-10-25T16:04:51.970Z,98175.06
2022-10-25T16:07:54.186Z,98171.63
2022-10-25T16:10:57.320Z,98163.09
2022-10-25T16:14:00.071Z,98161.22
2022-10-25T16:17:02.206Z,98156.22
2022-10-25T16:20:08.874Z,98162.56
2022-10-25T16:23:10.923Z,98153.03
2022-10-25T16:26:22.906Z,98147.69
2022-10-25T16:29:25.322Z,98144.00
2022-10-25T16:32:27.342Z,98148.78
2022-10-25T16:35:29.445Z,98143.44
2022-10-25T16:38:31.474Z,98147.38
2022-10-25T16:41:33.604Z,98147.13
2022-10-25T16:44:35.751Z,98139.69
2022-10-25T16:47:37.836Z,98141.25
2022-10-25T16:50:39.875Z,98148.53
2022-10-25T16:53:42.138Z,98154.88
2022-10-25T16:56:44.182Z,98158.91
2022-10-25T16:59:46.251Z,98172.19
2022-10-25T17:02:48.658Z,98168.13
2022-10-25T17:05:52.468Z,98161.81
2022-10-25T17:08:54.514Z,98169.25
2022-10-25T17:11:56.517Z,98164.97
2022-10-25T17:14:58.555Z,98162.31
2022-10-25T17:18:00.664Z,98162.59
2022-10-25T17:21:11.521Z,98151.63
2022-10-25T17:24:14.323Z,98154.84
2022-10-25T17:27:16.382Z,98149.75
2022-10-25T17:30:19.038Z,98141.50
2022-10-25T17:33:21.081Z,98144.69
2022-10-25T17:36:23.139Z,98148.44
2022-10-25T17:39:25.772Z,98139.94
2022-10-25T17:42:28.361Z,98139.09
2022-10-25T17:45:31.705Z,98139.72
2022-10-25T17:48:33.853Z,98134.41
2022-10-25T17:51:36.008Z,98131.50
2022-10-25T17:54:39.313Z,98131.75
2022-10-25T17:57:41.386Z,98123.50
2022-10-25T18:00:43.431Z,98123.75
2022-10-25T18:03:45.497Z,98115.00
2022-10-25T18:06:47.752Z,98120.56
2022-10-25T18:09:49.890Z,98125.84
2022-10-25T18:12:52.115Z,98132.53
2022-10-25T18:15:54.339Z,98137.84
2022-10-25T18:18:59.138Z,98139.69
2022-10-25T18:22:03.954Z,98149.31
2022-10-25T18:25:06.903Z,98140.81
2022-10-25T18:28:08.953Z,98140.47
2022-10-25T18:31:12.951Z,98143.66
2022-10-25T18:34:15.000Z,98142.53
2022-10-25T18:37:17.057Z,98142.53
2022-10-25T18:40:19.185Z,98136.44
2022-10-25T18:43:22.028Z,98128.44
2022-10-25T18:46:25.327Z,98132.41
2022-10-25T18:49:27.446Z,98122.09
2022-10-25T18:52:29.480Z,98119.41
2022-10-25T18:55:31.607Z,98120.31
2022-10-25T18:58:33.646Z,98127.41
2022-10-25T19:01:36.053Z,98120.22
2022-10-25T19:04:38.151Z,98124.75
2022-10-25T19:07:40.306Z,98124.22
2022-10-25T19:10:42.503Z,98114.03
2022-10-25T19:13:47.575Z,98116.88
2022-10-25T19:16:52.583Z,98124.56
2022-10-25T19:19:54.614Z,98120.13
2022-10-25T19:22:58.723Z,98107.91
2022-10-25T19:26:05.696Z,98099.41
2022-10-25T19:29:07.746Z,98094.66
2022-10-25T19:32:09.782Z,98100.22
2022-10-25T19:35:11.902Z,98106.00
2022-10-25T19:38:13.981Z,98106.78
2022-10-25T19:41:22.777Z,98110.19
2022-10-25T19:44:24.994Z,98114.47
2022-10-25T19:47:27.070Z,98107.09
2022-10-25T19:50:29.129Z,98114.03
2022-10-25T19:53:31.190Z,98105.81
2022-10-25T19:56:37.198Z,98091.19
2022-10-25T19:59:39.298Z,98084.50
2022-10-25T20:02:41.460Z,98084.53
2022-10-25T20:05:43.518Z,98085.84
2022-10-25T20:08:47.317Z,98086.34
2022-10-25T20:11:49.557Z,98091.66
2022-10-25T20:14:51.812Z,98085.84
2022-10-25T20:17:53.890Z,98083.47
2022-10-25T20:21:13.716Z,98079.78
2022-10-25T20:24:15.958Z,98072.03
2022-10-25T20:27:18.015Z,98056.63
2022-10-25T20:30:20.081Z,98059.31
2022-10-25T20:33:22.210Z,98058.53
2022-10-25T20:36:24.554Z,98060.13
2022-10-25T20:39:26.628Z,98060.94
2022-10-25T20:42:28.664Z,98045.00
2022-10-25T20:45:30.794Z,98051.13
2022-10-25T20:48:33.003Z,98040.47
2022-10-25T20:51:35.326Z,98031.75
2022-10-25T20:54:37.385Z,98020.81
2022-10-25T20:57:40.431Z,98026.38
2022-10-25T21:00:42.655Z,98024.50
2022-10-25T21:03:44.847Z,98018.41
2022-10-25T21:06:46.993Z,98005.09
2022-10-25T21:09:49.605Z,98001.66
2022-10-25T21:12:51.773Z,98013.59
2022-10-25T21:15:53.826Z,98014.13
2022-10-25T21:18:55.858Z,98013.31
2022-10-25T21:21:57.901Z,98008.81
2022-10-25T21:24:59.962Z,98001.66
2022-10-25T21:28:02.035Z,98005.09
2022-10-25T21:31:05.601Z,97992.88
2022-10-25T21:34:07.697Z,97997.91
2022-10-25T21:37:09.762Z,97992.34
2022-10-25T21:40:12.197Z,97990.72
2022-10-25T21:43:14.227Z,97979.06
2022-10-25T21:46:17.459Z,97980.63
2022-10-25T21:49:19.495Z,97969.75
2022-10-25T21:52:21.651Z,97973.22
2022-10-25T21:55:23.762Z,97977.19
2022-10-25T21:58:25.821Z,97963.38
2022-10-25T22:01:29.481Z,97968.41
2022-10-25T22:04:31.687Z,97953.78
2022-10-25T22:07:33.755Z,97938.09
2022-10-25T22:10:35.823Z,97930.44
2022-10-25T22:13:38.283Z,97926.69
2022-10-25T22:16:40.487Z,97940.25
2022-10-25T22:19:42.523Z,97942.38
2022-10-25T22:22:44.597Z,97939.44
2022-10-25T22:25:46.767Z,97934.41
2022-10-25T22:28:55.953Z,97931.72
2022-10-25T22:31:57.965Z,97933.34
2022-10-25T22:35:00.034Z,97924.56
2022-10-25T22:38:02.809Z,97923.25
2022-10-25T22:41:16.221Z,97930.69
2022-10-25T22:44:18.342Z,97925.91
2022-10-25T22:47:20.463Z,97928.31
2022-10-25T22:50:22.493Z,97915.28
2022-10-25T22:53:24.548Z,97911.28
2022-10-25T22:56:28.546Z,97891.91
2022-10-25T22:59:30.610Z,97898.78
2022-10-25T23:02:32.656Z,97895.59
2022-10-25T23:05:34.713Z,97891.34
2022-10-25T23:08:36.738Z,97895.63
2022-10-25T23:11:40.135Z,97895.09
2022-10-25T23:14:42.226Z,97881.53
2022-10-25T23:17:47.247Z,97881.25
2022-10-25T23:20:53.627Z,97873.56
2022-10-25T23:23:56.781Z,97883.13
2022-10-25T23:26:58.845Z,97888.72
2022-10-25T23:30:00.930Z,97888.16
2022-10-25T23:33:02.955Z,97876.22
2022-10-25T23:36:09.530Z,97870.91
2022-10-25T23:39:11.576Z,97871.97
2022-10-25T23:42:13.649Z,97871.16
2022-10-25T23:45:15.817Z,97878.34
2022-10-25T23:48:17.924Z,97880.72
2022-10-25T23:51:20.474Z,97871.41
2022-10-25T23:54:22.520Z,97858.41
2022-10-25T23:57:24.559Z,97871.16
